createdAt,value
2023-05-04T00:02:07.597Z,14.63
2023-05-04T00:05:10.158Z,18.25
2023-05-04T00:08:11.843Z,13.35
2023-05-04T00:11:13.400Z,11.55
2023-05-04T00:14:15.025Z,14.45
2023-05-04T00:17:16.840Z,14.45
2023-05-04T00:20:18.771Z,15.07
2023-05-04T00:23:20.548Z,16.60
2023-05-04T00:26:24.272Z,15.88
2023-05-04T00:29:25.901Z,11.38
2023-05-04T00:32:27.673Z,14.23
2023-05-04T00:35:31.761Z,14.35
2023-05-04T00:38:48.035Z,10.60
2023-05-04T00:41:49.585Z,15.68
2023-05-04T00:44:51.300Z,14.02
2023-05-04T00:47:54.049Z,14.68
2023-05-04T00:50:55.930Z,12.57
2023-05-04T00:54:00.224Z,11.98
2023-05-04T00:57:03.429Z,15.57
2023-05-04T01:00:05.940Z,13.68
2023-05-04T01:03:09.709Z,16.83
2023-05-04T01:06:52.587Z,18.90
2023-05-04T01:10:23.546Z,17.42
2023-05-04T01:13:25.873Z,14.40
2023-05-04T01:16:27.469Z,16.00
2023-05-04T01:19:29.246Z,14.20
2023-05-04T01:22:31.010Z,17.80
2023-05-04T01:25:57.712Z,18.35
2023-05-04T01:29:19.551Z,21.23
2023-05-04T01:32:22.785Z,13.20
2023-05-04T01:35:25.032Z,14.63
2023-05-04T01:38:26.629Z,18.70
2023-05-04T01:41:29.925Z,20.80
2023-05-04T01:44:31.489Z,15.57
2023-05-04T01:47:33.131Z,12.50
2023-05-04T01:50:34.761Z,18.00
2023-05-04T01:53:36.328Z,16.60
2023-05-04T01:56:38.203Z,13.13
2023-05-04T01:59:39.743Z,15.45
2023-05-04T02:02:41.363Z,18.08
2023-05-04T02:05:42.986Z,15.35
2023-05-04T02:08:46.582Z,14.50
2023-05-04T02:11:48.223Z,20.98
2023-05-04T02:14:49.767Z,14.82
2023-05-04T02:17:51.348Z,22.92
2023-05-04T02:20:52.897Z,17.75
2023-05-04T02:23:54.456Z,17.27
2023-05-04T02:26:56.118Z,19.13
2023-05-04T02:30:00.432Z,14.75
2023-05-04T02:33:02.083Z,12.95
2023-05-04T02:36:03.898Z,16.48
2023-05-04T02:39:05.828Z,17.92
2023-05-04T02:42:07.357Z,12.20
2023-05-04T02:45:09.272Z,19.48
2023-05-04T02:48:11.116Z,14.13
2023-05-04T02:51:12.794Z,13.57
2023-05-04T02:54:14.377Z,16.02
2023-05-04T02:57:15.942Z,15.40
2023-05-04T03:00:18.065Z,18.50
2023-05-04T03:03:19.583Z,19.80
2023-05-04T03:06:21.223Z,14.75
2023-05-04T03:09:22.779Z,19.35
2023-05-04T03:12:25.090Z,15.45
2023-05-04T03:15:26.888Z,18.63
2023-05-04T03:18:28.778Z,15.73
2023-05-04T03:21:30.427Z,16.52
2023-05-04T03:24:31.970Z,22.63
2023-05-04T03:27:33.572Z,19.60
2023-05-04T03:30:36.146Z,14.98
2023-05-04T03:33:37.694Z,21.85
2023-05-04T03:36:39.321Z,20.65
2023-05-04T03:39:41.118Z,15.27
2023-05-04T03:42:42.656Z,17.15
2023-05-04T03:45:44.304Z,22.83
2023-05-04T03:48:45.933Z,15.95
2023-05-04T03:51:47.637Z,19.40
2023-05-04T03:54:49.187Z,16.70
2023-05-04T03:57:51.348Z,19.40
2023-05-04T04:00:52.958Z,17.17
2023-05-04T04:03:54.617Z,19.08
2023-05-04T04:06:56.268Z,23.08
2023-05-04T04:09:57.795Z,19.48
2023-05-04T04:12:59.439Z,21.50
2023-05-04T04:16:01.081Z,22.08
2023-05-04T04:19:02.779Z,18.20
2023-05-04T04:22:04.313Z,17.15
2023-05-04T04:25:06.307Z,20.13
2023-05-04T04:28:07.891Z,22.10
2023-05-04T04:31:10.410Z,22.13
2023-05-04T04:34:12.204Z,17.27
2023-05-04T04:37:13.799Z,18.73
2023-05-04T04:40:15.441Z,22.58
2023-05-04T04:43:17.004Z,23.02
2023-05-04T04:46:19.165Z,20.15
2023-05-04T04:49:20.716Z,14.52
2023-05-04T04:52:23.621Z,19.25
2023-05-04T04:55:25.526Z,21.15
2023-05-04T04:58:27.169Z,25.25
2023-05-04T05:01:29.744Z,27.30
2023-05-04T05:04:31.633Z,23.75
2023-05-04T05:07:33.848Z,21.70
2023-05-04T05:10:35.382Z,23.70
2023-05-04T05:13:36.973Z,15.70
2023-05-04T05:16:38.668Z,17.50
2023-05-04T05:19:42.207Z,18.52
2023-05-04T05:22:43.975Z,17.35
2023-05-04T05:25:45.556Z,14.30
2023-05-04T05:28:47.343Z,19.63
2023-05-04T05:31:48.920Z,17.27
2023-05-04T05:34:50.473Z,23.27
2023-05-04T05:37:52.024Z,17.45
2023-05-04T05:40:53.653Z,17.63
2023-05-04T05:43:55.263Z,18.80
2023-05-04T05:46:56.910Z,15.43
2023-05-04T05:49:58.539Z,20.42
2023-05-04T05:53:00.103Z,18.13
2023-05-04T05:56:01.672Z,16.88
2023-05-04T05:59:03.259Z,14.50
2023-05-04T06:02:05.865Z,18.95
2023-05-04T06:05:07.840Z,15.02
2023-05-04T06:08:09.430Z,14.80
2023-05-04T06:11:11.777Z,13.68
2023-05-04T06:14:13.320Z,12.00
2023-05-04T06:17:14.936Z,17.63
2023-05-04T06:20:16.571Z,14.13
2023-05-04T06:23:18.139Z,14.95
2023-05-04T06:26:20.145Z,14.52
2023-05-04T06:29:22.216Z,18.98
2023-05-04T06:32:23.963Z,14.35
2023-05-04T06:35:25.783Z,15.25
2023-05-04T06:38:27.330Z,11.88
2023-05-04T06:41:29.166Z,12.88
2023-05-04T06:44:33.986Z,14.40
2023-05-04T06:47:37.246Z,20.90
2023-05-04T06:50:39.708Z,13.48
2023-05-04T06:53:41.397Z,14.20
2023-05-04T06:56:43.250Z,12.85
2023-05-04T06:59:44.791Z,26.92
2023-05-04T07:02:47.047Z,13.50
2023-05-04T07:05:50.553Z,20.48
2023-05-04T07:08:52.265Z,23.63
2023-05-04T07:11:53.842Z,14.02
2023-05-04T07:14:55.579Z,10.65
2023-05-04T07:17:57.249Z,14.35
2023-05-04T07:21:10.714Z,23.75
2023-05-04T07:24:20.307Z,16.92
2023-05-04T07:27:21.953Z,11.90
2023-05-04T07:30:24.353Z,13.93
2023-05-04T07:33:26.519Z,11.68
2023-05-04T07:36:28.244Z,11.13
2023-05-04T07:39:29.865Z,14.43
2023-05-04T07:42:31.852Z,8.50
2023-05-04T07:45:33.511Z,13.23
2023-05-04T07:48:35.061Z,12.50
2023-05-04T07:51:37.741Z,17.38
2023-05-04T07:54:39.319Z,14.50
2023-05-04T07:57:41.222Z,11.93
2023-05-04T08:00:42.800Z,12.40
2023-05-04T08:03:45.167Z,12.30
2023-05-04T08:06:47.022Z,18.60
2023-05-04T08:09:48.768Z,12.70
2023-05-04T08:12:50.322Z,11.88
2023-05-04T08:15:51.997Z,14.18
2023-05-04T08:18:53.748Z,11.80
2023-05-04T08:21:55.539Z,12.70
2023-05-04T08:24:57.700Z,10.57
2023-05-04T08:27:59.290Z,8.65
2023-05-04T08:31:00.921Z,11.10
2023-05-04T08:34:03.622Z,10.20
2023-05-04T08:37:05.337Z,10.95
2023-05-04T08:40:07.746Z,9.38
2023-05-04T08:43:09.675Z,10.80
2023-05-04T08:46:11.636Z,9.90
2023-05-04T08:49:13.311Z,14.60
2023-05-04T08:52:15.909Z,8.77
2023-05-04T08:55:17.848Z,7.22
2023-05-04T08:58:22.127Z,8.38
2023-05-04T09:01:24.629Z,10.48
2023-05-04T09:04:29.182Z,7.72
2023-05-04T09:07:32.906Z,10.82
2023-05-04T09:10:34.599Z,9.15
2023-05-04T09:13:36.540Z,8.05
2023-05-04T09:16:38.672Z,17.00
2023-05-04T09:19:43.720Z,11.25
2023-05-04T09:22:45.731Z,8.70
2023-05-04T09:25:55.790Z,11.82
2023-05-04T09:28:57.875Z,8.80
2023-05-04T09:31:59.579Z,7.88
2023-05-04T09:35:01.393Z,8.98
2023-05-04T09:38:03.901Z,10.63
2023-05-04T09:41:05.517Z,9.30
2023-05-04T09:44:18.028Z,8.98
2023-05-04T09:47:19.691Z,6.80
2023-05-04T09:50:23.254Z,9.07
2023-05-04T09:53:39.700Z,10.60
2023-05-04T09:56:47.482Z,9.38
2023-05-04T09:59:49.742Z,16.45
2023-05-04T10:02:52.046Z,9.75
2023-05-04T10:05:54.551Z,8.23
2023-05-04T10:08:58.656Z,8.90
2023-05-04T10:12:02.123Z,9.07
2023-05-04T10:15:07.820Z,9.40
2023-05-04T10:18:40.598Z,6.85
2023-05-04T10:22:19.281Z,6.97
2023-05-04T10:25:44.732Z,9.38
2023-05-04T10:28:55.260Z,7.05
2023-05-04T10:31:57.286Z,11.05
2023-05-04T10:35:09.975Z,7.30
2023-05-04T10:38:13.040Z,7.45
2023-05-04T10:41:19.353Z,9.15
2023-05-04T10:44:20.990Z,10.10
2023-05-04T10:47:30.036Z,6.18
2023-05-04T10:50:49.373Z,8.40
2023-05-04T10:53:52.062Z,8.63
2023-05-04T10:57:09.348Z,12.18
2023-05-04T11:00:12.004Z,8.27
2023-05-04T11:03:15.117Z,5.95
2023-05-04T11:06:24.500Z,10.90
2023-05-04T11:09:28.152Z,7.35
2023-05-04T11:12:30.920Z,8.63
2023-05-04T11:15:32.845Z,9.07
2023-05-04T11:18:37.208Z,5.88
2023-05-04T11:21:40.429Z,5.80
2023-05-04T11:24:46.804Z,5.53
2023-05-04T11:27:49.157Z,6.57
2023-05-04T11:30:53.242Z,5.65
2023-05-04T11:33:55.876Z,7.10
2023-05-04T11:36:57.541Z,6.65
2023-05-04T11:39:59.560Z,6.35
2023-05-04T11:43:02.311Z,11.35
2023-05-04T11:46:06.001Z,7.13
2023-05-04T11:49:07.869Z,9.85
2023-05-04T11:52:10.459Z,8.68
2023-05-04T11:55:27.325Z,6.68
2023-05-04T11:58:29.620Z,5.68
2023-05-04T12:01:35.026Z,7.85
2023-05-04T12:04:36.626Z,6.28
2023-05-04T12:07:38.236Z,8.07
2023-05-04T12:10:39.830Z,8.13
2023-05-04T12:13:42.720Z,3.53
2023-05-04T12:16:54.289Z,8.55
2023-05-04T12:19:56.988Z,7.70
2023-05-04T12:23:05.079Z,3.63
2023-05-04T12:26:07.866Z,6.60
2023-05-04T12:29:09.442Z,7.50
2023-05-04T12:32:11.145Z,6.50
2023-05-04T12:35:12.822Z,9.80
2023-05-04T12:38:14.642Z,7.28
2023-05-04T12:41:16.417Z,16.20
2023-05-04T12:44:18.708Z,6.88
2023-05-04T12:47:23.812Z,3.58
2023-05-04T12:50:25.709Z,8.93
2023-05-04T12:53:29.921Z,5.25
2023-05-04T12:56:32.317Z,7.43
2023-05-04T12:59:33.904Z,3.80
2023-05-04T13:02:35.651Z,5.75
2023-05-04T13:05:37.254Z,10.20
2023-05-04T13:08:38.878Z,9.23
2023-05-04T13:11:40.485Z,5.07
2023-05-04T13:14:42.127Z,4.15
2023-05-04T13:17:44.070Z,4.50
2023-05-04T13:20:46.431Z,6.65
2023-05-04T13:23:48.036Z,5.43
2023-05-04T13:26:49.687Z,5.90
2023-05-04T13:29:51.315Z,5.85
2023-05-04T13:32:53.037Z,5.30
2023-05-04T13:35:56.780Z,6.28
2023-05-04T13:38:58.495Z,4.30
2023-05-04T13:42:00.083Z,5.00
2023-05-04T13:45:02.026Z,7.30
2023-05-04T13:48:04.346Z,5.80
2023-05-04T13:51:06.070Z,5.80
2023-05-04T13:54:07.597Z,5.80
2023-05-04T13:57:09.180Z,3.90
2023-05-04T14:00:11.432Z,7.72
2023-05-04T14:03:13.100Z,4.55
2023-05-04T14:06:15.029Z,3.92
2023-05-04T14:09:17.603Z,4.50
2023-05-04T14:12:21.393Z,4.50
2023-05-04T14:15:23.128Z,6.85
2023-05-04T14:18:24.787Z,6.35
2023-05-04T14:21:26.381Z,10.38
2023-05-04T14:24:29.387Z,10.30
2023-05-04T14:27:34.353Z,4.35
2023-05-04T14:30:36.954Z,5.65
2023-05-04T14:33:41.625Z,4.07
2023-05-04T14:36:43.275Z,4.95
2023-05-04T14:39:44.916Z,4.25
2023-05-04T14:42:47.034Z,5.90
2023-05-04T14:45:48.701Z,5.50
2023-05-04T14:48:50.252Z,4.00
2023-05-04T14:51:51.841Z,3.50
2023-05-04T14:54:53.477Z,6.43
2023-05-04T14:57:59.113Z,5.28
2023-05-04T15:01:00.774Z,4.75
2023-05-04T15:04:02.642Z,3.15
2023-05-04T15:07:05.390Z,5.50
2023-05-04T15:10:10.680Z,6.72
2023-05-04T15:13:15.454Z,3.00
2023-05-04T15:16:20.349Z,3.47
2023-05-04T15:19:21.992Z,3.58
2023-05-04T15:22:23.574Z,4.88
2023-05-04T15:25:27.116Z,7.72
2023-05-04T15:28:28.763Z,10.43
2023-05-04T15:31:30.338Z,5.40
2023-05-04T15:34:31.981Z,4.20
2023-05-04T15:37:33.974Z,4.38
2023-05-04T15:40:35.663Z,5.00
2023-05-04T15:43:37.238Z,4.50
2023-05-04T15:46:38.840Z,5.78
2023-05-04T15:49:40.372Z,3.00
2023-05-04T15:52:41.983Z,3.85
2023-05-04T15:55:43.520Z,3.92
2023-05-04T15:58:45.364Z,5.88
2023-05-04T16:01:47.110Z,4.25
2023-05-04T16:04:48.802Z,5.15
2023-05-04T16:07:51.383Z,8.30
2023-05-04T16:10:53.803Z,5.60
2023-05-04T16:13:55.690Z,8.27
2023-05-04T16:17:01.852Z,9.40
2023-05-04T16:20:07.504Z,5.60
2023-05-04T16:23:09.785Z,4.22
2023-05-04T16:26:11.436Z,4.45
2023-05-04T16:29:13.126Z,8.32
2023-05-04T16:32:14.756Z,5.57
2023-05-04T16:35:16.319Z,5.63
2023-05-04T16:38:19.452Z,3.50
2023-05-04T16:41:21.238Z,6.68
2023-05-04T16:44:22.802Z,4.20
2023-05-04T16:47:24.388Z,6.53
2023-05-04T16:50:25.965Z,4.65
2023-05-04T16:53:27.602Z,6.15
2023-05-04T16:56:29.130Z,6.18
2023-05-04T16:59:31.347Z,7.70
2023-05-04T17:02:32.954Z,3.67
2023-05-04T17:05:37.051Z,8.20
2023-05-04T17:08:38.652Z,3.92
2023-05-04T17:11:40.242Z,6.15
2023-05-04T17:14:42.406Z,6.07
2023-05-04T17:17:44.028Z,5.50
2023-05-04T17:20:45.650Z,7.75
2023-05-04T17:23:47.368Z,6.72
2023-05-04T17:26:49.447Z,4.22
2023-05-04T17:29:50.986Z,4.45
2023-05-04T17:32:54.307Z,4.28
2023-05-04T17:35:55.964Z,4.03
2023-05-04T17:38:57.602Z,6.00
2023-05-04T17:41:59.273Z,2.80
2023-05-04T17:45:00.886Z,4.25
2023-05-04T17:48:04.157Z,4.97
2023-05-04T17:51:09.097Z,3.75
2023-05-04T17:54:10.720Z,9.88
2023-05-04T17:57:12.351Z,7.97
2023-05-04T18:00:14.319Z,7.47
2023-05-04T18:03:16.228Z,6.90
2023-05-04T18:06:17.795Z,5.43
2023-05-04T18:09:19.694Z,8.07
2023-05-04T18:12:21.303Z,7.13
2023-05-04T18:15:24.122Z,8.57
2023-05-04T18:18:25.701Z,7.55
2023-05-04T18:21:27.637Z,7.70
2023-05-04T18:24:29.174Z,7.55
2023-05-04T18:27:33.199Z,8.43
2023-05-04T18:30:35.003Z,13.77
2023-05-04T18:33:37.032Z,8.82
2023-05-04T18:36:38.617Z,8.82
2023-05-04T18:39:40.631Z,6.32
2023-05-04T18:42:42.402Z,5.78
2023-05-04T18:45:43.966Z,5.78
2023-05-04T18:48:45.678Z,10.35
2023-05-04T18:51:47.308Z,8.10
2023-05-04T18:54:49.446Z,7.68
2023-05-04T18:57:51.493Z,6.85
2023-05-04T19:00:53.932Z,6.82
2023-05-04T19:03:55.561Z,6.68
2023-05-04T19:07:00.066Z,6.53
2023-05-04T19:10:01.735Z,8.50
2023-05-04T19:13:03.458Z,9.07
2023-05-04T19:16:05.298Z,6.35
2023-05-04T19:19:07.213Z,9.10
2023-05-04T19:22:08.833Z,5.32
2023-05-04T19:25:12.253Z,10.27
2023-05-04T19:28:19.819Z,7.85
2023-05-04T19:31:21.413Z,5.65
2023-05-04T19:34:23.169Z,6.30
2023-05-04T19:37:24.856Z,5.50
2023-05-04T19:40:26.685Z,5.47
2023-05-04T19:43:28.539Z,7.32
2023-05-04T19:46:31.870Z,6.72
2023-05-04T19:49:33.543Z,7.55
2023-05-04T19:52:36.164Z,9.25
2023-05-04T19:55:38.624Z,6.63
2023-05-04T19:58:40.191Z,9.35
2023-05-04T20:01:41.712Z,7.00
2023-05-04T20:04:43.296Z,6.30
2023-05-04T20:07:44.824Z,9.98
2023-05-04T20:10:47.226Z,7.85
2023-05-04T20:13:48.780Z,10.50
2023-05-04T20:16:51.272Z,7.75
2023-05-04T20:19:52.904Z,5.65
2023-05-04T20:22:55.917Z,8.40
2023-05-04T20:25:57.627Z,6.88
2023-05-04T20:28:59.182Z,7.38
2023-05-04T20:32:01.417Z,8.32
2023-05-04T20:35:03.355Z,5.82
2023-05-04T20:38:04.904Z,5.25
2023-05-04T20:41:10.075Z,5.80
2023-05-04T20:44:12.149Z,6.60
2023-05-04T20:47:13.834Z,13.68
2023-05-04T20:50:17.753Z,5.25
2023-05-04T20:53:19.289Z,5.15
2023-05-04T20:56:22.180Z,7.68
2023-05-04T20:59:23.783Z,5.70
2023-05-04T21:02:25.509Z,7.82
2023-05-04T21:05:27.209Z,6.10
2023-05-04T21:08:29.130Z,6.05
2023-05-04T21:11:30.723Z,9.70
2023-05-04T21:14:32.309Z,6.90
2023-05-04T21:17:33.919Z,8.48
2023-05-04T21:20:35.744Z,10.40
2023-05-04T21:23:37.350Z,7.57
2023-05-04T21:26:39.442Z,8.80
2023-05-04T21:29:41.128Z,7.90
2023-05-04T21:32:42.872Z,9.32
2023-05-04T21:35:44.494Z,8.10
2023-05-04T21:38:46.117Z,10.35
2023-05-04T21:41:48.078Z,7.68
2023-05-04T21:44:58.928Z,10.30
2023-05-04T21:48:02.361Z,9.93
2023-05-04T21:51:04.183Z,9.15
2023-05-04T21:54:05.785Z,11.68
2023-05-04T21:57:07.426Z,8.10
2023-05-04T22:00:12.543Z,7.53
2023-05-04T22:03:14.138Z,7.18
2023-05-04T22:06:16.642Z,7.70
2023-05-04T22:09:18.963Z,12.25
2023-05-04T22:12:20.545Z,7.60
2023-05-04T22:15:22.142Z,6.25
2023-05-04T22:18:23.817Z,7.10
2023-05-04T22:21:26.087Z,5.72
2023-05-04T22:24:27.617Z,5.80
2023-05-04T22:27:29.266Z,7.18
2023-05-04T22:30:31.345Z,6.13
2023-05-04T22:33:32.955Z,8.30
2023-05-04T22:36:34.551Z,6.05
2023-05-04T22:39:36.157Z,6.75
2023-05-04T22:42:37.769Z,7.25
2023-05-04T22:45:40.185Z,8.50
2023-05-04T22:48:42.098Z,10.20
2023-05-04T22:51:43.759Z,8.13
2023-05-04T22:54:45.589Z,9.02
2023-05-04T22:57:47.175Z,8.60
2023-05-04T23:00:48.839Z,5.95
2023-05-04T23:25:43.048Z,7.25
2023-05-04T23:28:44.790Z,7.88
2023-05-04T23:31:46.478Z,8.52
2023-05-04T23:34:48.087Z,6.55
2023-05-04T23:37:49.609Z,5.57
2023-05-04T23:40:51.974Z,6.72
2023-05-04T23:43:53.497Z,5.90
2023-05-04T23:46:55.067Z,9.75
2023-05-04T23:49:56.856Z,7.28
2023-05-04T23:52:58.379Z,10.13
2023-05-04T23:56:03.827Z,5.35
2023-05-04T23:59:06.009Z,7.30
